sensor_id;sensor_type;location;lat;lon;timestamp;pressure;altitude;pressure_sealevel;temperature;humidity
70304;BME280;57712;48.752;11.348;2022-10-26T00:00:10;97713.44;;;9.51;100.00
70304;BME280;57712;48.752;11.348;2022-10-26T00:02:36;97714.16;;;9.55;100.00
70304;BME280;57712;48.752;11.348;2022-10-26T00:05:04;97716.94;;;9.51;100.00
70304;BME280;57712;48.752;11.348;2022-10-26T00:07:30;97713.13;;;9.42;100.00
70304;BME280;57712;48.752;11.348;2022-10-26T00:09:56;97708.03;;;9.44;100.00
70304;BME280;57712;48.752;11.348;2022-10-26T00:12:23;97704.50;;;9.43;100.00
70304;BME280;57712;48.752;11.348;2022-10-26T00:14:49;97700.56;;;9.48;100.00
70304;BME280;57712;48.752;11.348;2022-10-26T00:17:15;97702.91;;;9.49;100.00
70304;BME280;57712;48.752;11.348;2022-10-26T00:19:42;97696.56;;;9.60;100.00
70304;BME280;57712;48.752;11.348;2022-10-26T00:22:08;97719.19;;;9.60;100.00
70304;BME280;57712;48.752;11.348;2022-10-26T00:24:34;97708.38;;;9.49;100.00
70304;BME280;57712;48.752;11.348;2022-10-26T00:27:01;97715.34;;;9.54;100.00
70304;BME280;57712;48.752;11.348;2022-10-26T00:29:27;97697.81;;;9.51;100.00
70304;BME280;57712;48.752;11.348;2022-10-26T00:31:53;97701.97;;;9.63;100.00
70304;BME280;57712;48.752;11.348;2022-10-26T00:34:19;97700.41;;;9.62;100.00
70304;BME280;57712;48.752;11.348;2022-10-26T00:36:46;97694.13;;;9.65;100.00
70304;BME280;57712;48.752;11.348;2022-10-26T00:39:12;97679.63;;;9.68;100.00
70304;BME280;57712;48.752;11.348;2022-10-26T00:41:39;97677.78;;;9.58;100.00
70304;BME280;57712;48.752;11.348;2022-10-26T00:47:24;97692.47;;;9.75;100.00
70304;BME280;57712;48.752;11.348;2022-10-26T00:49:55;97705.28;;;9.81;100.00
70304;BME280;57712;48.752;11.348;2022-10-26T00:52:22;97705.66;;;9.83;100.00
70304;BME280;57712;48.752;11.348;2022-10-26T00:54:51;97694.66;;;9.87;100.00
70304;BME280;57712;48.752;11.348;2022-10-26T00:57:17;97683.69;;;9.91;100.00
70304;BME280;57712;48.752;11.348;2022-10-26T00:59:44;97680.25;;;9.83;100.00
70304;BME280;57712;48.752;11.348;2022-10-26T01:02:12;97658.38;;;9.83;100.00
70304;BME280;57712;48.752;11.348;2022-10-26T01:04:38;97651.28;;;9.86;100.00
70304;BME280;57712;48.752;11.348;2022-10-26T01:07:07;97662.44;;;10.02;100.00
70304;BME280;57712;48.752;11.348;2022-10-26T01:09:34;97655.00;;;10.02;100.00
70304;BME280;57712;48.752;11.348;2022-10-26T01:12:01;97655.31;;;10.08;100.00
70304;BME280;57712;48.752;11.348;2022-10-26T01:14:27;97659.56;;;10.12;100.00
70304;BME280;57712;48.752;11.348;2022-10-26T01:17:04;97661.41;;;10.19;100.00
70304;BME280;57712;48.752;11.348;2022-10-26T01:22:19;97680.03;;;10.31;100.00
70304;BME280;57712;48.752;11.348;2022-10-26T01:27:42;97692.78;;;10.45;100.00
70304;BME280;57712;48.752;11.348;2022-10-26T01:30:28;97695.44;;;10.49;100.00
70304;BME280;57712;48.752;11.348;2022-10-26T01:33:08;97708.38;;;10.48;100.00
70304;BME280;57712;48.752;11.348;2022-10-26T01:35:43;97723.59;;;10.53;100.00
70304;BME280;57712;48.752;11.348;2022-10-26T01:38:28;97728.16;;;10.59;100.00
70304;BME280;57712;48.752;11.348;2022-10-26T01:43:45;97736.19;;;10.47;100.00
70304;BME280;57712;48.752;11.348;2022-10-26T01:46:14;97735.19;;;10.60;100.00
70304;BME280;57712;48.752;11.348;2022-10-26T01:48:43;97725.00;;;10.61;100.00
70304;BME280;57712;48.752;11.348;2022-10-26T01:51:10;97724.22;;;10.64;100.00
70304;BME280;57712;48.752;11.348;2022-10-26T01:53:45;97710.13;;;10.62;100.00
70304;BME280;57712;48.752;11.348;2022-10-26T01:56:22;97705.38;;;10.66;100.00
70304;BME280;57712;48.752;11.348;2022-10-26T01:58:54;97694.06;;;10.64;100.00
70304;BME280;57712;48.752;11.348;2022-10-26T02:04:40;97695.97;;;10.67;100.00
70304;BME280;57712;48.752;11.348;2022-10-26T02:15:28;97690.00;;;10.72;100.00
70304;BME280;57712;48.752;11.348;2022-10-26T02:18:13;97696.25;;;10.73;100.00
70304;BME280;57712;48.752;11.348;2022-10-26T02:20:49;97689.66;;;10.70;100.00
70304;BME280;57712;48.752;11.348;2022-10-26T02:23:17;97690.84;;;10.69;100.00
70304;BME280;57712;48.752;11.348;2022-10-26T02:25:48;97684.16;;;10.74;100.00
70304;BME280;57712;48.752;11.348;2022-10-26T02:28:18;97686.50;;;10.72;100.00
70304;BME280;57712;48.752;11.348;2022-10-26T02:30:48;97690.50;;;10.67;100.00
70304;BME280;57712;48.752;11.348;2022-10-26T02:33:18;97685.84;;;10.64;100.00
70304;BME280;57712;48.752;11.348;2022-10-26T02:35:51;97691.34;;;10.64;100.00
70304;BME280;57712;48.752;11.348;2022-10-26T02:38:20;97692.03;;;10.68;100.00
70304;BME280;57712;48.752;11.348;2022-10-26T02:40:49;97685.44;;;10.65;100.00
70304;BME280;57712;48.752;11.348;2022-10-26T02:43:17;97683.06;;;10.67;100.00
70304;BME280;57712;48.752;11.348;2022-10-26T02:45:51;97679.53;;;10.67;100.00
70304;BME280;57712;48.752;11.348;2022-10-26T02:48:19;97679.19;;;10.65;100.00
70304;BME280;57712;48.752;11.348;2022-10-26T02:50:59;97682.19;;;10.74;100.00
70304;BME280;57712;48.752;11.348;2022-10-26T02:53:34;97688.44;;;10.75;100.00
70304;BME280;57712;48.752;11.348;2022-10-26T02:56:15;97691.94;;;10.75;100.00
70304;BME280;57712;48.752;11.348;2022-10-26T02:58:46;97686.47;;;10.75;100.00
70304;BME280;57712;48.752;11.348;2022-10-26T03:01:14;97707.22;;;10.73;100.00
70304;BME280;57712;48.752;11.348;2022-10-26T03:03:41;97703.88;;;10.61;100.00
70304;BME280;57712;48.752;11.348;2022-10-26T03:06:07;97706.94;;;10.67;100.00
70304;BME280;57712;48.752;11.348;2022-10-26T03:08:33;97715.16;;;10.67;100.00
70304;BME280;57712;48.752;11.348;2022-10-26T03:11:00;97695.72;;;10.58;100.00
70304;BME280;57712;48.752;11.348;2022-10-26T03:13:26;97707.78;;;10.64;100.00
70304;BME280;57712;48.752;11.348;2022-10-26T03:15:55;97701.81;;;10.69;100.00
70304;BME280;57712;48.752;11.348;2022-10-26T03:18:22;97701.34;;;10.74;100.00
70304;BME280;57712;48.752;11.348;2022-10-26T03:20:49;97696.91;;;10.57;100.00
70304;BME280;57712;48.752;11.348;2022-10-26T03:23:15;97698.34;;;10.65;100.00
70304;BME280;57712;48.752;11.348;2022-10-26T03:25:41;97692.91;;;10.61;100.00
70304;BME280;57712;48.752;11.348;2022-10-26T03:28:08;97684.25;;;10.66;100.00
70304;BME280;57712;48.752;11.348;2022-10-26T03:30:34;97681.03;;;10.72;100.00
70304;BME280;57712;48.752;11.348;2022-10-26T03:33:00;97682.22;;;10.70;100.00
70304;BME280;57712;48.752;11.348;2022-10-26T03:35:26;97682.63;;;10.69;100.00
70304;BME280;57712;48.752;11.348;2022-10-26T03:37:53;97688.13;;;10.69;100.00
70304;BME280;57712;48.752;11.348;2022-10-26T03:40:19;97692.72;;;10.76;100.00
70304;BME280;57712;48.752;11.348;2022-10-26T03:42:46;97708.75;;;10.77;100.00
70304;BME280;57712;48.752;11.348;2022-10-26T03:45:13;97706.22;;;10.63;100.00
70304;BME280;57712;48.752;11.348;2022-10-26T03:47:46;97703.41;;;10.66;100.00
70304;BME280;57712;48.752;11.348;2022-10-26T03:50:14;97712.06;;;10.65;100.00
70304;BME280;57712;48.752;11.348;2022-10-26T03:52:41;97704.97;;;10.67;100.00
70304;BME280;57712;48.752;11.348;2022-10-26T03:55:08;97715.50;;;10.69;100.00
70304;BME280;57712;48.752;11.348;2022-10-26T03:57:40;97708.84;;;10.70;100.00
70304;BME280;57712;48.752;11.348;2022-10-26T04:00:08;97710.38;;;10.71;100.00
70304;BME280;57712;48.752;11.348;2022-10-26T04:02:34;97705.03;;;10.64;100.00
70304;BME280;57712;48.752;11.348;2022-10-26T04:05:01;97704.97;;;10.67;100.00
70304;BME280;57712;48.752;11.348;2022-10-26T04:07:27;97703.16;;;10.57;100.00
70304;BME280;57712;48.752;11.348;2022-10-26T04:09:53;97696.03;;;10.63;100.00
70304;BME280;57712;48.752;11.348;2022-10-26T04:12:20;97686.66;;;10.61;100.00
70304;BME280;57712;48.752;11.348;2022-10-26T04:14:46;97689.03;;;10.59;100.00
70304;BME280;57712;48.752;11.348;2022-10-26T04:17:12;97691.38;;;10.60;100.00
70304;BME280;57712;48.752;11.348;2022-10-26T04:19:39;97699.22;;;10.58;100.00
70304;BME280;57712;48.752;11.348;2022-10-26T04:22:05;97690.56;;;10.63;100.00
70304;BME280;57712;48.752;11.348;2022-10-26T04:24:31;97704.19;;;10.67;100.00
70304;BME280;57712;48.752;11.348;2022-10-26T04:26:58;97694.78;;;10.68;100.00
70304;BME280;57712;48.752;11.348;2022-10-26T04:29:24;97698.22;;;10.72;100.00
70304;BME280;57712;48.752;11.348;2022-10-26T04:31:50;97693.59;;;10.69;100.00
70304;BME280;57712;48.752;11.348;2022-10-26T04:34:16;97713.91;;;10.72;100.00
70304;BME280;57712;48.752;11.348;2022-10-26T04:36:43;97722.44;;;10.77;100.00
70304;BME280;57712;48.752;11.348;2022-10-26T04:39:09;97724.69;;;10.82;100.00
70304;BME280;57712;48.752;11.348;2022-10-26T04:41:35;97728.59;;;10.85;100.00
70304;BME280;57712;48.752;11.348;2022-10-26T04:44:02;97732.53;;;10.84;100.00
70304;BME280;57712;48.752;11.348;2022-10-26T04:46:28;97722.34;;;10.84;100.00
70304;BME280;57712;48.752;11.348;2022-10-26T04:48:54;97719.59;;;10.84;100.00
70304;BME280;57712;48.752;11.348;2022-10-26T04:51:21;97733.66;;;10.86;100.00
70304;BME280;57712;48.752;11.348;2022-10-26T04:53:47;97725.53;;;10.79;100.00
70304;BME280;57712;48.752;11.348;2022-10-26T04:56:13;97726.16;;;10.90;100.00
70304;BME280;57712;48.752;11.348;2022-10-26T04:58:39;97729.25;;;10.92;100.00
70304;BME280;57712;48.752;11.348;2022-10-26T05:01:06;97738.19;;;10.96;100.00
70304;BME280;57712;48.752;11.348;2022-10-26T05:03:32;97744.91;;;10.92;100.00
70304;BME280;57712;48.752;11.348;2022-10-26T05:05:59;97745.22;;;10.97;100.00
70304;BME280;57712;48.752;11.348;2022-10-26T05:08:27;97763.06;;;10.82;100.00
70304;BME280;57712;48.752;11.348;2022-10-26T05:10:54;97778.53;;;10.69;100.00
70304;BME280;57712;48.752;11.348;2022-10-26T05:13:21;97781.25;;;10.69;100.00
70304;BME280;57712;48.752;11.348;2022-10-26T05:15:47;97788.28;;;10.70;100.00
70304;BME280;57712;48.752;11.348;2022-10-26T05:18:14;97787.09;;;10.71;100.00
70304;BME280;57712;48.752;11.348;2022-10-26T05:20:40;97810.31;;;10.63;100.00
70304;BME280;57712;48.752;11.348;2022-10-26T05:23:09;97829.50;;;10.63;100.00
70304;BME280;57712;48.752;11.348;2022-10-26T05:25:37;97835.41;;;10.58;100.00
70304;BME280;57712;48.752;11.348;2022-10-26T05:28:06;97818.25;;;10.54;100.00
70304;BME280;57712;48.752;11.348;2022-10-26T05:30:34;97813.50;;;10.58;100.00
70304;BME280;57712;48.752;11.348;2022-10-26T05:33:01;97830.03;;;10.51;100.00
70304;BME280;57712;48.752;11.348;2022-10-26T05:35:31;97835.13;;;10.49;100.00
70304;BME280;57712;48.752;11.348;2022-10-26T05:37:57;97846.78;;;10.56;100.00
70304;BME280;57712;48.752;11.348;2022-10-26T05:40:24;97833.09;;;10.56;100.00
70304;BME280;57712;48.752;11.348;2022-10-26T05:42:51;97847.44;;;10.67;100.00
70304;BME280;57712;48.752;11.348;2022-10-26T05:45:18;97844.94;;;10.46;100.00
70304;BME280;57712;48.752;11.348;2022-10-26T05:47:44;97838.53;;;10.60;100.00
70304;BME280;57712;48.752;11.348;2022-10-26T05:50:12;97840.91;;;10.58;100.00
70304;BME280;57712;48.752;11.348;2022-10-26T05:52:39;97827.56;;;10.60;100.00
70304;BME280;57712;48.752;11.348;2022-10-26T05:55:07;97825.59;;;10.60;100.00
70304;BME280;57712;48.752;11.348;2022-10-26T05:57:34;97825.94;;;10.66;100.00
70304;BME280;57712;48.752;11.348;2022-10-26T06:00:02;97808.31;;;10.67;100.00
70304;BME280;57712;48.752;11.348;2022-10-26T06:02:40;97823.91;;;10.70;100.00
70304;BME280;57712;48.752;11.348;2022-10-26T06:05:09;97818.97;;;10.58;100.00
70304;BME280;57712;48.752;11.348;2022-10-26T06:07:38;97790.81;;;10.57;100.00
70304;BME280;57712;48.752;11.348;2022-10-26T06:10:05;97747.13;;;10.47;100.00
70304;BME280;57712;48.752;11.348;2022-10-26T06:12:32;97740.16;;;10.42;100.00
70304;BME280;57712;48.752;11.348;2022-10-26T06:14:59;97719.94;;;10.32;100.00
70304;BME280;57712;48.752;11.348;2022-10-26T06:17:35;97718.28;;;10.38;100.00
70304;BME280;57712;48.752;11.348;2022-10-26T06:20:20;97741.72;;;10.43;100.00
70304;BME280;57712;48.752;11.348;2022-10-26T06:31:44;97784.69;;;10.77;100.00
70304;BME280;57712;48.752;11.348;2022-10-26T06:34:11;97806.13;;;10.55;100.00
70304;BME280;57712;48.752;11.348;2022-10-26T06:36:41;97818.97;;;10.58;100.00
70304;BME280;57712;48.752;11.348;2022-10-26T06:39:09;97820.53;;;10.59;100.00
70304;BME280;57712;48.752;11.348;2022-10-26T06:41:37;97830.66;;;10.62;100.00
70304;BME280;57712;48.752;11.348;2022-10-26T06:44:04;97828.56;;;10.73;100.00
70304;BME280;57712;48.752;11.348;2022-10-26T06:46:42;97823.81;;;10.77;100.00
70304;BME280;57712;48.752;11.348;2022-10-26T06:49:22;97838.84;;;10.65;100.00
70304;BME280;57712;48.752;11.348;2022-10-26T06:52:02;97838.78;;;10.69;100.00
70304;BME280;57712;48.752;11.348;2022-10-26T06:54:53;97831.19;;;10.84;100.00
70304;BME280;57712;48.752;11.348;2022-10-26T06:57:23;97822.53;;;10.85;100.00
70304;BME280;57712;48.752;11.348;2022-10-26T06:59:57;97825.78;;;11.04;100.00
70304;BME280;57712;48.752;11.348;2022-10-26T07:02:25;97822.88;;;11.18;100.00
70304;BME280;57712;48.752;11.348;2022-10-26T07:04:52;97824.69;;;11.24;100.00
70304;BME280;57712;48.752;11.348;2022-10-26T07:07:21;97821.75;;;11.39;100.00
70304;BME280;57712;48.752;11.348;2022-10-26T07:09:48;97817.88;;;11.36;100.00
70304;BME280;57712;48.752;11.348;2022-10-26T07:12:15;97809.06;;;11.48;100.00
70304;BME280;57712;48.752;11.348;2022-10-26T07:14:41;97806.56;;;11.57;100.00
70304;BME280;57712;48.752;11.348;2022-10-26T07:17:08;97821.34;;;11.64;100.00
70304;BME280;57712;48.752;11.348;2022-10-26T07:19:34;97827.75;;;11.57;100.00
70304;BME280;57712;48.752;11.348;2022-10-26T07:22:01;97841.63;;;11.70;100.00
70304;BME280;57712;48.752;11.348;2022-10-26T07:24:28;97832.13;;;11.74;100.00
70304;BME280;57712;48.752;11.348;2022-10-26T07:26:55;97833.75;;;11.72;100.00
70304;BME280;57712;48.752;11.348;2022-10-26T07:29:23;97833.06;;;11.68;100.00
70304;BME280;57712;48.752;11.348;2022-10-26T07:31:50;97836.16;;;11.70;100.00
70304;BME280;57712;48.752;11.348;2022-10-26T07:34:22;97841.81;;;11.59;100.00
70304;BME280;57712;48.752;11.348;2022-10-26T07:36:48;97847.66;;;11.61;100.00
70304;BME280;57712;48.752;11.348;2022-10-26T07:39:16;97850.09;;;11.79;100.00
70304;BME280;57712;48.752;11.348;2022-10-26T07:41:43;97851.34;;;11.98;100.00
70304;BME280;57712;48.752;11.348;2022-10-26T07:44:10;97853.63;;;12.03;100.00
70304;BME280;57712;48.752;11.348;2022-10-26T07:46:36;97855.84;;;12.11;100.00
70304;BME280;57712;48.752;11.348;2022-10-26T07:49:02;97861.38;;;12.08;100.00
70304;BME280;57712;48.752;11.348;2022-10-26T07:51:29;97867.63;;;12.32;100.00
70304;BME280;57712;48.752;11.348;2022-10-26T07:53:55;97866.22;;;12.24;100.00
70304;BME280;57712;48.752;11.348;2022-10-26T07:56:22;97860.72;;;12.24;100.00
70304;BME280;57712;48.752;11.348;2022-10-26T07:58:51;97852.91;;;12.42;100.00
70304;BME280;57712;48.752;11.348;2022-10-26T08:01:18;97859.97;;;12.63;100.00
70304;BME280;57712;48.752;11.348;2022-10-26T08:03:44;97858.25;;;12.69;100.00
70304;BME280;57712;48.752;11.348;2022-10-26T08:06:11;97853.09;;;12.71;100.00
70304;BME280;57712;48.752;11.348;2022-10-26T08:08:37;97860.75;;;12.63;100.00
70304;BME280;57712;48.752;11.348;2022-10-26T08:11:08;97859.03;;;12.69;100.00
70304;BME280;57712;48.752;11.348;2022-10-26T08:13:34;97854.44;;;12.83;100.00
70304;BME280;57712;48.752;11.348;2022-10-26T08:16:03;97870.88;;;12.86;100.00
70304;BME280;57712;48.752;11.348;2022-10-26T08:18:30;97860.97;;;13.09;100.00
70304;BME280;57712;48.752;11.348;2022-10-26T08:21:04;97860.94;;;13.28;100.00
70304;BME280;57712;48.752;11.348;2022-10-26T08:23:37;97861.13;;;13.38;100.00
70304;BME280;57712;48.752;11.348;2022-10-26T08:26:04;97865.09;;;13.37;100.00
70304;BME280;57712;48.752;11.348;2022-10-26T08:28:30;97861.28;;;13.31;100.00
70304;BME280;57712;48.752;11.348;2022-10-26T08:30:56;97868.13;;;13.22;100.00
70304;BME280;57712;48.752;11.348;2022-10-26T08:33:23;97864.22;;;13.40;100.00
70304;BME280;57712;48.752;11.348;2022-10-26T08:35:57;97869.97;;;13.29;100.00
70304;BME280;57712;48.752;11.348;2022-10-26T08:38:24;97862.22;;;13.24;100.00
70304;BME280;57712;48.752;11.348;2022-10-26T08:40:51;97866.28;;;13.36;100.00
70304;BME280;57712;48.752;11.348;2022-10-26T08:43:24;97877.25;;;13.19;100.00
70304;BME280;57712;48.752;11.348;2022-10-26T08:46:00;97881.19;;;13.18;100.00
70304;BME280;57712;48.752;11.348;2022-10-26T08:48:33;97880.63;;;13.07;100.00
70304;BME280;57712;48.752;11.348;2022-10-26T08:51:06;97884.94;;;13.28;100.00
70304;BME280;57712;48.752;11.348;2022-10-26T08:53:54;97881.31;;;13.11;100.00
70304;BME280;57712;48.752;11.348;2022-10-26T08:56:27;97884.00;;;13.35;100.00
70304;BME280;57712;48.752;11.348;2022-10-26T08:58:57;97883.06;;;13.57;100.00
70304;BME280;57712;48.752;11.348;2022-10-26T09:01:24;97882.03;;;13.35;100.00
70304;BME280;57712;48.752;11.348;2022-10-26T09:03:50;97885.72;;;13.61;100.00
70304;BME280;57712;48.752;11.348;2022-10-26T09:06:34;97882.81;;;13.84;100.00
70304;BME280;57712;48.752;11.348;2022-10-26T09:09:12;97879.00;;;13.95;100.00
70304;BME280;57712;48.752;11.348;2022-10-26T09:11:58;97869.03;;;14.01;100.00
70304;BME280;57712;48.752;11.348;2022-10-26T09:25:20;97881.31;;;14.58;100.00
70304;BME280;57712;48.752;11.348;2022-10-26T09:27:54;97882.22;;;14.38;100.00
70304;BME280;57712;48.752;11.348;2022-10-26T09:30:21;97887.56;;;14.46;100.00
70304;BME280;57712;48.752;11.348;2022-10-26T09:32:59;97895.84;;;14.29;100.00
70304;BME280;57712;48.752;11.348;2022-10-26T09:35:36;97902.81;;;14.34;100.00
70304;BME280;57712;48.752;11.348;2022-10-26T09:40:56;97888.75;;;14.61;100.00
70304;BME280;57712;48.752;11.348;2022-10-26T09:43:25;97892.81;;;14.69;100.00
70304;BME280;57712;48.752;11.348;2022-10-26T09:45:53;97894.44;;;14.83;100.00
70304;BME280;57712;48.752;11.348;2022-10-26T09:48:32;97891.31;;;15.22;100.00
70304;BME280;57712;48.752;11.348;2022-10-26T09:51:02;97887.34;;;15.62;100.00
70304;BME280;57712;48.752;11.348;2022-10-26T09:53:30;97889.06;;;16.06;100.00
70304;BME280;57712;48.752;11.348;2022-10-26T09:56:03;97884.50;;;16.12;100.00
70304;BME280;57712;48.752;11.348;2022-10-26T09:58:35;97893.56;;;16.26;100.00
70304;BME280;57712;48.752;11.348;2022-10-26T10:01:02;97892.34;;;16.27;100.00
70304;BME280;57712;48.752;11.348;2022-10-26T10:03:30;97899.16;;;15.87;100.00
70304;BME280;57712;48.752;11.348;2022-10-26T10:08:41;97913.22;;;15.68;100.00
70304;BME280;57712;48.752;11.348;2022-10-26T10:11:10;97916.97;;;15.74;100.00
70304;BME280;57712;48.752;11.348;2022-10-26T10:13:42;97924.78;;;15.63;100.00
70304;BME280;57712;48.752;11.348;2022-10-26T10:18:36;97919.38;;;15.46;100.00
70304;BME280;57712;48.752;11.348;2022-10-26T10:21:04;97920.91;;;15.47;100.00
70304;BME280;57712;48.752;11.348;2022-10-26T10:23:34;97922.19;;;15.30;100.00
70304;BME280;57712;48.752;11.348;2022-10-26T10:26:08;97922.78;;;15.38;100.00
70304;BME280;57712;48.752;11.348;2022-10-26T10:28:37;97922.63;;;15.16;100.00
70304;BME280;57712;48.752;11.348;2022-10-26T10:31:19;97917.78;;;15.20;100.00
70304;BME280;57712;48.752;11.348;2022-10-26T10:33:46;97919.44;;;15.30;100.00
70304;BME280;57712;48.752;11.348;2022-10-26T10:36:27;97930.72;;;15.36;100.00
70304;BME280;57712;48.752;11.348;2022-10-26T10:38:58;97926.41;;;15.22;100.00
70304;BME280;57712;48.752;11.348;2022-10-26T10:41:31;97917.88;;;15.04;100.00
70304;BME280;57712;48.752;11.348;2022-10-26T10:44:17;97922.38;;;15.10;100.00
70304;BME280;57712;48.752;11.348;2022-10-26T10:46:46;97925.63;;;15.21;100.00
70304;BME280;57712;48.752;11.348;2022-10-26T10:49:23;97930.03;;;15.31;100.00
70304;BME280;57712;48.752;11.348;2022-10-26T10:51:50;97931.13;;;15.21;100.00
70304;BME280;57712;48.752;11.348;2022-10-26T10:54:28;97926.28;;;15.25;100.00
70304;BME280;57712;48.752;11.348;2022-10-26T10:58:16;97932.16;;;15.40;100.00
70304;BME280;57712;48.752;11.348;2022-10-26T11:00:11;97932.47;;;15.42;100.00
70304;BME280;57712;48.752;11.348;2022-10-26T11:09:01;97943.56;;;15.93;100.00
70304;BME280;57712;48.752;11.348;2022-10-26T11:11:32;97939.47;;;16.10;100.00
70304;BME280;57712;48.752;11.348;2022-10-26T11:16:37;97947.22;;;15.90;100.00
70304;BME280;57712;48.752;11.348;2022-10-26T11:19:32;97938.34;;;16.21;100.00
70304;BME280;57712;48.752;11.348;2022-10-26T11:22:03;97939.13;;;16.08;100.00
70304;BME280;57712;48.752;11.348;2022-10-26T11:24:44;97946.31;;;16.19;100.00
70304;BME280;57712;48.752;11.348;2022-10-26T11:27:16;97947.00;;;15.97;100.00
70304;BME280;57712;48.752;11.348;2022-10-26T11:32:36;97954.41;;;16.00;100.00
70304;BME280;57712;48.752;11.348;2022-10-26T11:35:16;97945.63;;;16.14;100.00
70304;BME280;57712;48.752;11.348;2022-10-26T11:37:52;97949.41;;;16.21;100.00
70304;BME280;57712;48.752;11.348;2022-10-26T11:40:40;97945.63;;;16.27;100.00
70304;BME280;57712;48.752;11.348;2022-10-26T11:43:22;97951.03;;;16.31;100.00
70304;BME280;57712;48.752;11.348;2022-10-26T11:51:40;97950.53;;;16.45;100.00
70304;BME280;57712;48.752;11.348;2022-10-26T11:54:16;97954.06;;;16.45;100.00
70304;BME280;57712;48.752;11.348;2022-10-26T11:56:52;97947.78;;;16.45;100.00
70304;BME280;57712;48.752;11.348;2022-10-26T11:59:21;97952.66;;;16.41;100.00
70304;BME280;57712;48.752;11.348;2022-10-26T12:02:16;97948.53;;;16.58;100.00
70304;BME280;57712;48.752;11.348;2022-10-26T12:04:48;97954.75;;;16.50;100.00
70304;BME280;57712;48.752;11.348;2022-10-26T12:07:25;97958.75;;;16.83;100.00
70304;BME280;57712;48.752;11.348;2022-10-26T12:09:53;97948.72;;;16.64;100.00
70304;BME280;57712;48.752;11.348;2022-10-26T12:12:41;97964.47;;;16.89;100.00
70304;BME280;57712;48.752;11.348;2022-10-26T12:15:33;97964.03;;;16.90;100.00
70304;BME280;57712;48.752;11.348;2022-10-26T12:21:15;97958.69;;;16.96;100.00
70304;BME280;57712;48.752;11.348;2022-10-26T12:23:57;97965.72;;;17.10;100.00
70304;BME280;57712;48.752;11.348;2022-10-26T12:34:21;97971.16;;;17.44;98.42
70304;BME280;57712;48.752;11.348;2022-10-26T12:39:41;97972.69;;;17.45;94.99
70304;BME280;57712;48.752;11.348;2022-10-26T12:44:37;97979.41;;;17.66;95.37
70304;BME280;57712;48.752;11.348;2022-10-26T12:47:08;97976.53;;;17.70;94.67
70304;BME280;57712;48.752;11.348;2022-10-26T12:52:28;97984.72;;;17.73;95.03
70304;BME280;57712;48.752;11.348;2022-10-26T12:55:12;97992.22;;;17.95;94.13
70304;BME280;57712;48.752;11.348;2022-10-26T12:58:08;97989.25;;;17.89;94.66
70304;BME280;57712;48.752;11.348;2022-10-26T13:00:47;97992.25;;;18.13;94.89
70304;BME280;57712;48.752;11.348;2022-10-26T13:06:34;97986.50;;;17.67;94.14
70304;BME280;57712;48.752;11.348;2022-10-26T13:08:56;97993.94;;;17.48;95.17
70304;BME280;57712;48.752;11.348;2022-10-26T13:11:33;98000.63;;;17.60;95.87
70304;BME280;57712;48.752;11.348;2022-10-26T13:14:03;97993.81;;;17.52;96.52
70304;BME280;57712;48.752;11.348;2022-10-26T13:16:30;97996.84;;;17.45;97.69
70304;BME280;57712;48.752;11.348;2022-10-26T13:18:58;97987.72;;;17.66;96.48
70304;BME280;57712;48.752;11.348;2022-10-26T13:21:25;97984.13;;;17.78;95.09
70304;BME280;57712;48.752;11.348;2022-10-26T13:26:21;97983.19;;;17.72;95.90
70304;BME280;57712;48.752;11.348;2022-10-26T13:33:55;97985.66;;;17.79;95.26
70304;BME280;57712;48.752;11.348;2022-10-26T13:36:44;97993.09;;;17.92;95.04
70304;BME280;57712;48.752;11.348;2022-10-26T13:39:17;97989.91;;;17.71;94.70
70304;BME280;57712;48.752;11.348;2022-10-26T13:41:46;97986.50;;;17.67;95.55
70304;BME280;57712;48.752;11.348;2022-10-26T13:47:07;97991.84;;;17.83;97.01
70304;BME280;57712;48.752;11.348;2022-10-26T13:49:44;98004.75;;;17.77;96.84
70304;BME280;57712;48.752;11.348;2022-10-26T13:52:22;98006.28;;;17.78;96.55
70304;BME280;57712;48.752;11.348;2022-10-26T13:54:57;97995.88;;;17.92;97.46
70304;BME280;57712;48.752;11.348;2022-10-26T13:57:28;98008.19;;;17.91;95.74
70304;BME280;57712;48.752;11.348;2022-10-26T13:59:58;98004.66;;;17.90;96.21
70304;BME280;57712;48.752;11.348;2022-10-26T14:02:29;98007.28;;;17.94;95.08
70304;BME280;57712;48.752;11.348;2022-10-26T14:05:01;98010.72;;;18.07;95.58
70304;BME280;57712;48.752;11.348;2022-10-26T14:07:35;98014.72;;;18.06;93.92
70304;BME280;57712;48.752;11.348;2022-10-26T14:10:04;98015.19;;;18.04;95.05
70304;BME280;57712;48.752;11.348;2022-10-26T14:12:31;98011.06;;;18.18;94.93
70304;BME280;57712;48.752;11.348;2022-10-26T14:15:05;98015.41;;;18.28;95.16
70304;BME280;57712;48.752;11.348;2022-10-26T14:17:32;98019.75;;;18.38;92.51
70304;BME280;57712;48.752;11.348;2022-10-26T14:19:59;98018.66;;;18.27;93.09
70304;BME280;57712;48.752;11.348;2022-10-26T14:22:27;98021.59;;;18.32;94.09
70304;BME280;57712;48.752;11.348;2022-10-26T14:24:59;98022.22;;;18.36;94.52
70304;BME280;57712;48.752;11.348;2022-10-26T14:27:31;98022.16;;;18.18;93.44
70304;BME280;57712;48.752;11.348;2022-10-26T14:29:57;98025.81;;;18.06;94.78
70304;BME280;57712;48.752;11.348;2022-10-26T14:32:45;98035.38;;;18.05;95.13
70304;BME280;57712;48.752;11.348;2022-10-26T14:35:12;98033.00;;;17.94;94.30
70304;BME280;57712;48.752;11.348;2022-10-26T14:37:50;98033.13;;;17.91;95.07
70304;BME280;57712;48.752;11.348;2022-10-26T14:40:19;98031.63;;;17.99;95.69